Pagrindinis puslapis
METAR-TAF:

METAR-TAF

Oro uostai :

Indianapolis, Indiana, Jungtinės Amerikos Valstijos

platuma: 39-43-30N, ilguma: 086-16-55W, Aukštis: 243 m

Dabartinis oras

Ataskaita buvo paskelbta 1 valandą ir 8 minutes, ne 05:54 UTC
Vėjas 4 kt iš Šiaurės
Temperatūra -2°C
Drėgmė 80%
Slėgis 1028 hPa
Matomumas: 16.1 km
Giedras dangus

METAR: KIND 070554Z 36004KT 10SM CLR M02/M05 A3036 RMK AO2 SLP288 T10221050 10022 21022 53004

Laikas: 02:02 (07:02 UTC)

Prognozė

Ataskaita buvo paskelbta 1 valandą ir 42 minutes, ne 05:20 UTC
Prognozė galioja nuo 07 metu 06 UTC su 08 metu 12 UTC
Vėjas 5 kt iš Šiaurės/Šiaurės Rytų
Matomumas: 10 km
Giedras dangus
Nuo 07 metu 0800 UTC
Vėjas 3 kt nuo kintamojo kryptimis
Matomumas: 10 km
Mažai debesys ne aukštis 25000 ft
Nuo 07 metu 1700 UTC
Vėjas 6 kt iš Pietų/Pietryčių
Matomumas: 10 km
Mažai debesys ne aukštis 25000 ft

TAF: KIND 070520Z 0706/0812 03005KT P6SM SKC FM070800 VRB03KT P6SM FEW250 FM071700 15006KT P6SM FEW250

Orai ataskaitas ir orų prognozės (METAR, TAF).

turimą stotys yra geltonos ir raudonos taškus žemėlapyje.

Perkelti pele per norėdami pamatyti stoties vardą.

Tada spustelėkite, norėdami matyti oro stebėjimo ir prognozės.

Norėdami pakeisti žemėlapį: spustelėkite ant žalios mygtukų su juodo kryžiaus žemyn,; žalią mygtuką su brūkšneliu, jei norite nutolinti; arba žalių rodyklių gretimoms žemėlapius.


METAR-TAF: